createdAt,value
2022-08-29T00:04:52.353Z,97.58
2022-08-29T00:09:56.707Z,97.85
2022-08-29T00:15:00.771Z,99.97
2022-08-29T00:20:05.748Z,100.00
2022-08-29T00:25:13.278Z,100.00
2022-08-29T00:30:16.725Z,100.00
2022-08-29T00:35:23.623Z,100.00
2022-08-29T00:40:31.243Z,100.00
2022-08-29T00:45:35.042Z,100.00
2022-08-29T00:50:42.093Z,100.00
2022-08-29T00:55:50.676Z,100.00
2022-08-29T01:00:55.735Z,99.54
2022-08-29T01:05:58.607Z,100.00
2022-08-29T01:11:22.155Z,100.00
2022-08-29T01:16:29.031Z,100.00
2022-08-29T01:21:45.739Z,100.00
2022-08-29T01:26:49.990Z,100.00
2022-08-29T01:31:57.416Z,100.00
2022-08-29T01:37:02.741Z,100.00
2022-08-29T01:42:10.019Z,100.00
2022-08-29T01:47:12.835Z,100.00
2022-08-29T01:52:18.039Z,100.00
2022-08-29T01:57:22.341Z,100.00
2022-08-29T02:02:28.715Z,100.00
2022-08-29T02:07:31.648Z,100.00
2022-08-29T02:12:36.210Z,100.00
2022-08-29T02:17:39.398Z,100.00
2022-08-29T02:22:42.811Z,100.00
2022-08-29T02:27:47.002Z,100.00
2022-08-29T02:32:50.235Z,100.00
2022-08-29T02:37:53.653Z,100.00
2022-08-29T02:42:57.859Z,100.00
2022-08-29T02:48:01.019Z,100.00
2022-08-29T02:53:03.790Z,100.00
2022-08-29T02:58:08.856Z,100.00
2022-08-29T03:03:12.036Z,100.00
2022-08-29T03:08:15.490Z,100.00
2022-08-29T03:13:20.278Z,100.00
2022-08-29T03:18:23.377Z,100.00
2022-08-29T03:23:26.400Z,100.00
2022-08-29T03:28:30.631Z,100.00
2022-08-29T03:33:33.586Z,100.00
2022-08-29T03:38:38.005Z,100.00
2022-08-29T03:43:42.200Z,100.00
2022-08-29T03:48:45.162Z,100.00
2022-08-29T03:53:48.334Z,100.00
2022-08-29T03:58:53.578Z,100.00
2022-08-29T04:03:57.845Z,100.00
2022-08-29T04:09:01.699Z,100.00
2022-08-29T04:14:05.948Z,100.00
2022-08-29T04:19:08.920Z,100.00
2022-08-29T04:24:12.397Z,100.00
2022-08-29T04:29:16.666Z,100.00
2022-08-29T04:34:20.787Z,100.00
2022-08-29T04:39:23.755Z,100.00
2022-08-29T04:44:27.996Z,100.00
2022-08-29T04:49:30.825Z,100.00
2022-08-29T04:54:33.692Z,100.00
2022-08-29T04:59:38.027Z,100.00
2022-08-29T05:04:40.884Z,100.00
2022-08-29T05:09:43.756Z,100.00
2022-08-29T05:14:47.984Z,100.00
2022-08-29T05:19:50.945Z,100.00
2022-08-29T05:24:56.323Z,98.82
2022-08-29T05:30:00.771Z,98.35
2022-08-29T05:35:04.078Z,96.76
2022-08-29T05:40:08.026Z,96.18
2022-08-29T05:45:13.162Z,96.49
2022-08-29T05:50:17.050Z,95.88
2022-08-29T05:55:20.052Z,95.57
2022-08-29T06:00:24.490Z,95.26
2022-08-29T06:05:27.309Z,92.53
2022-08-29T06:10:30.205Z,90.44
2022-08-29T06:15:34.437Z,86.37
2022-08-29T06:20:38.390Z,83.73
2022-08-29T06:25:41.234Z,81.46
2022-08-29T06:30:45.508Z,80.40
2022-08-29T06:35:48.625Z,81.74
2022-08-29T06:40:52.756Z,78.59
2022-08-29T06:45:57.292Z,77.28
2022-08-29T06:51:02.454Z,75.56
2022-08-29T06:56:06.613Z,71.88
2022-08-29T07:01:18.546Z,73.74
2022-08-29T07:06:21.946Z,68.21
2022-08-29T07:11:25.854Z,63.74
2022-08-29T07:16:31.501Z,58.58
2022-08-29T07:21:34.696Z,51.79
2022-08-29T07:26:42.001Z,46.47
2022-08-29T07:31:47.366Z,47.13
2022-08-29T07:36:50.236Z,49.61
2022-08-29T07:41:53.087Z,43.44
2022-08-29T07:46:58.708Z,38.05
2022-08-29T07:52:01.623Z,38.85
2022-08-29T07:57:04.518Z,46.76
2022-08-29T08:02:08.834Z,55.09
2022-08-29T08:07:13.957Z,58.45
2022-08-29T08:12:17.773Z,59.43
2022-08-29T08:17:22.118Z,58.09
2022-08-29T08:22:24.954Z,57.39
2022-08-29T08:27:27.914Z,58.79
2022-08-29T08:32:32.490Z,59.70
2022-08-29T08:37:36.572Z,60.47
2022-08-29T08:42:43.233Z,61.42
2022-08-29T08:47:51.315Z,58.97
2022-08-29T08:52:59.256Z,61.15
2022-08-29T08:58:06.841Z,61.10
2022-08-29T09:03:23.410Z,57.19
2022-08-29T09:08:37.870Z,56.60
2022-08-29T09:13:52.502Z,57.31
2022-08-29T09:19:01.838Z,59.08
2022-08-29T09:24:09.995Z,59.58
2022-08-29T09:29:13.930Z,58.77
2022-08-29T09:34:57.023Z,58.09
2022-08-29T09:40:02.661Z,58.11
2022-08-29T09:45:17.655Z,58.42
2022-08-29T09:50:25.546Z,58.23
2022-08-29T09:55:35.029Z,57.61
2022-08-29T10:00:40.272Z,60.05
2022-08-29T10:05:46.882Z,61.14
2022-08-29T10:10:54.611Z,60.13
2022-08-29T10:16:02.708Z,60.24
2022-08-29T10:21:20.345Z,57.08
2022-08-29T10:26:43.008Z,55.78
2022-08-29T10:31:53.671Z,56.66
2022-08-29T10:37:06.512Z,57.31
2022-08-29T10:42:15.685Z,56.39
2022-08-29T10:47:29.140Z,57.13
2022-08-29T10:52:39.298Z,59.23
2022-08-29T10:57:50.849Z,60.27
2022-08-29T11:03:05.669Z,58.79
2022-08-29T11:08:16.311Z,59.04
2022-08-29T11:13:24.390Z,58.33
2022-08-29T11:18:29.973Z,59.14
2022-08-29T11:23:39.469Z,57.76
2022-08-29T11:28:51.710Z,57.60
2022-08-29T11:34:03.100Z,56.61
2022-08-29T11:39:42.675Z,55.09
2022-08-29T11:44:49.211Z,53.51
2022-08-29T11:49:53.305Z,53.45
2022-08-29T11:55:24.196Z,53.73
2022-08-29T12:00:51.198Z,55.74
2022-08-29T12:06:00.500Z,57.11
2022-08-29T12:11:05.786Z,57.60
2022-08-29T12:16:10.553Z,55.82
2022-08-29T12:21:33.989Z,55.52
2022-08-29T12:26:45.068Z,56.38
2022-08-29T12:32:22.947Z,56.30
2022-08-29T12:37:45.198Z,58.32
2022-08-29T12:43:04.509Z,59.04
2022-08-29T12:48:12.408Z,59.22
2022-08-29T12:53:19.141Z,59.17
2022-08-29T12:58:39.418Z,60.43
2022-08-29T13:03:42.229Z,61.03
2022-08-29T13:08:49.718Z,60.87
2022-08-29T13:14:05.485Z,60.41
2022-08-29T13:19:22.345Z,59.71
2022-08-29T13:24:25.236Z,58.83
2022-08-29T13:29:35.986Z,60.86
2022-08-29T13:34:38.947Z,60.37
2022-08-29T13:39:47.224Z,63.13
2022-08-29T13:45:08.867Z,61.14
2022-08-29T13:50:13.291Z,59.04
2022-08-29T13:55:16.269Z,59.24
2022-08-29T14:00:32.026Z,59.04
2022-08-29T14:05:38.298Z,59.78
2022-08-29T14:10:41.695Z,59.49
2022-08-29T14:15:46.188Z,59.23
2022-08-29T14:20:49.059Z,59.69
2022-08-29T14:25:52.045Z,60.62
2022-08-29T14:30:56.338Z,60.66
2022-08-29T14:35:59.291Z,59.01
2022-08-29T14:41:03.927Z,58.98
2022-08-29T14:46:08.404Z,57.76
2022-08-29T14:51:11.250Z,59.47
2022-08-29T14:56:44.295Z,60.09
2022-08-29T15:01:38.833Z,60.42
2022-08-29T15:06:41.845Z,61.49
2022-08-29T15:11:44.634Z,61.93
2022-08-29T15:16:48.802Z,61.17
2022-08-29T15:21:51.669Z,61.11
2022-08-29T15:26:54.651Z,61.62
2022-08-29T15:31:58.888Z,62.85
2022-08-29T15:37:02.824Z,62.72
2022-08-29T15:42:11.109Z,64.03
2022-08-29T15:47:15.318Z,64.81
2022-08-29T15:52:18.844Z,65.18
2022-08-29T15:57:22.109Z,63.56
2022-08-29T16:02:26.949Z,61.29
2022-08-29T16:07:29.906Z,59.71
2022-08-29T16:12:32.721Z,59.34
2022-08-29T16:17:37.178Z,59.51
2022-08-29T16:22:41.810Z,61.88
2022-08-29T16:27:44.947Z,62.19
2022-08-29T16:32:50.454Z,62.41
2022-08-29T16:38:02.184Z,62.97
2022-08-29T16:43:06.747Z,63.99
2022-08-29T16:48:15.802Z,64.20
2022-08-29T16:53:21.326Z,64.89
2022-08-29T16:58:41.458Z,66.06
2022-08-29T17:03:46.327Z,65.65
2022-08-29T17:08:48.111Z,67.37
2022-08-29T17:13:53.097Z,66.57
2022-08-29T17:18:57.598Z,66.10
2022-08-29T17:24:02.415Z,65.24
2022-08-29T17:29:06.291Z,64.90
2022-08-29T17:34:11.928Z,65.24
2022-08-29T17:39:14.716Z,65.37
2022-08-29T17:44:17.625Z,65.63
2022-08-29T17:49:22.007Z,65.95
2022-08-29T17:54:27.588Z,66.58
2022-08-29T17:59:33.725Z,67.22
2022-08-29T18:04:38.217Z,67.46
2022-08-29T18:09:41.074Z,67.85
2022-08-29T18:14:43.915Z,68.31
2022-08-29T18:19:48.163Z,68.85
2022-08-29T18:24:53.133Z,68.87
2022-08-29T18:29:57.113Z,69.42
2022-08-29T18:35:02.580Z,69.49
2022-08-29T18:40:07.867Z,69.57
2022-08-29T18:45:12.017Z,69.82
2022-08-29T18:50:33.809Z,69.76
2022-08-29T18:55:36.705Z,69.64
2022-08-29T19:00:39.710Z,69.42
2022-08-29T19:05:48.455Z,69.29
2022-08-29T19:10:53.830Z,69.18
2022-08-29T19:15:59.479Z,68.73
2022-08-29T19:21:06.233Z,68.43
2022-08-29T19:26:11.565Z,68.18
2022-08-29T19:31:16.408Z,68.96
2022-08-29T19:36:23.390Z,69.28
2022-08-29T19:41:27.443Z,70.32
2022-08-29T19:46:32.349Z,70.68
2022-08-29T19:51:38.145Z,70.94
2022-08-29T19:56:41.046Z,71.47
2022-08-29T20:01:49.885Z,71.98
2022-08-29T20:06:57.285Z,72.43
2022-08-29T20:12:03.078Z,72.69
2022-08-29T20:17:09.454Z,72.86
2022-08-29T20:22:14.256Z,73.26
2022-08-29T20:27:19.882Z,73.88
2022-08-29T20:32:22.724Z,73.92
2022-08-29T20:37:28.328Z,74.25
2022-08-29T20:42:31.360Z,74.72
2022-08-29T20:47:34.206Z,74.71
2022-08-29T20:52:39.754Z,74.79
2022-08-29T20:57:42.577Z,75.24
2022-08-29T21:03:02.683Z,75.56
2022-08-29T21:08:07.736Z,76.00
2022-08-29T21:13:10.655Z,76.14
2022-08-29T21:18:20.209Z,76.58
2022-08-29T21:23:25.733Z,76.33
2022-08-29T21:28:32.778Z,76.06
2022-08-29T21:33:37.818Z,75.19
2022-08-29T21:38:42.148Z,74.96
2022-08-29T21:43:45.059Z,74.32
2022-08-29T21:48:52.507Z,74.16
2022-08-29T21:54:00.765Z,73.49
2022-08-29T21:59:04.216Z,73.30
2022-08-29T22:04:09.072Z,73.13
2022-08-29T22:09:15.411Z,73.48
2022-08-29T22:14:18.870Z,74.28
2022-08-29T22:19:21.688Z,74.90
2022-08-29T22:24:25.802Z,74.83
2022-08-29T22:29:28.648Z,75.88
2022-08-29T22:34:31.836Z,76.61
2022-08-29T22:39:36.054Z,77.22
2022-08-29T22:45:02.310Z,77.69
2022-08-29T22:50:02.274Z,77.88
2022-08-29T22:55:07.886Z,78.01
2022-08-29T23:00:13.039Z,77.61
2022-08-29T23:05:16.599Z,78.41
2022-08-29T23:10:22.047Z,77.94
2022-08-29T23:15:24.999Z,77.29
2022-08-29T23:20:29.589Z,76.62
2022-08-29T23:25:33.904Z,76.50
2022-08-29T23:30:36.708Z,76.78
2022-08-29T23:35:39.528Z,75.43
2022-08-29T23:40:43.871Z,76.41
2022-08-29T23:45:46.681Z,75.17
2022-08-29T23:50:49.467Z,75.60
2022-08-29T23:55:54.357Z,75.37
